sensor_id;sensor_type;location;lat;lon;timestamp;pressure;altitude;pressure_sealevel;temperature;humidity
83185;BME280;73080;48.768;11.528;2024-03-08T00:01:16;97097.09;;;0.97;79.52
83185;BME280;73080;48.768;11.528;2024-03-08T00:03:42;97090.41;;;1.02;79.41
83185;BME280;73080;48.768;11.528;2024-03-08T00:06:07;97090.94;;;0.98;79.55
83185;BME280;73080;48.768;11.528;2024-03-08T00:08:33;97095.50;;;0.96;79.63
83185;BME280;73080;48.768;11.528;2024-03-08T00:10:58;97084.97;;;0.97;79.61
83185;BME280;73080;48.768;11.528;2024-03-08T00:13:23;97083.47;;;0.88;79.80
83185;BME280;73080;48.768;11.528;2024-03-08T00:15:48;97087.66;;;0.89;80.35
83185;BME280;73080;48.768;11.528;2024-03-08T00:18:14;97087.75;;;0.96;80.28
83185;BME280;73080;48.768;11.528;2024-03-08T00:20:39;97079.47;;;0.86;80.07
83185;BME280;73080;48.768;11.528;2024-03-08T00:23:04;97080.19;;;0.94;80.20
83185;BME280;73080;48.768;11.528;2024-03-08T00:25:29;97076.59;;;0.95;79.92
83185;BME280;73080;48.768;11.528;2024-03-08T00:27:55;97075.44;;;0.98;79.73
83185;BME280;73080;48.768;11.528;2024-03-08T00:30:20;97075.53;;;0.90;79.80
83185;BME280;73080;48.768;11.528;2024-03-08T00:32:45;97071.25;;;0.97;80.32
83185;BME280;73080;48.768;11.528;2024-03-08T00:35:10;97076.25;;;0.83;80.87
83185;BME280;73080;48.768;11.528;2024-03-08T00:37:36;97070.63;;;0.80;80.63
83185;BME280;73080;48.768;11.528;2024-03-08T00:40:01;97064.03;;;0.77;80.29
83185;BME280;73080;48.768;11.528;2024-03-08T00:42:26;97072.25;;;0.81;80.65
83185;BME280;73080;48.768;11.528;2024-03-08T00:44:52;97062.88;;;0.95;79.75
83185;BME280;73080;48.768;11.528;2024-03-08T00:47:17;97060.47;;;0.64;80.83
83185;BME280;73080;48.768;11.528;2024-03-08T00:49:42;97059.84;;;0.76;80.43
83185;BME280;73080;48.768;11.528;2024-03-08T00:52:08;97059.84;;;0.76;80.85
83185;BME280;73080;48.768;11.528;2024-03-08T00:54:34;97045.41;;;0.82;80.69
83185;BME280;73080;48.768;11.528;2024-03-08T00:57:00;97040.84;;;0.84;81.17
83185;BME280;73080;48.768;11.528;2024-03-08T00:59:25;97040.31;;;0.89;81.04
83185;BME280;73080;48.768;11.528;2024-03-08T01:01:51;97039.16;;;0.76;81.38
83185;BME280;73080;48.768;11.528;2024-03-08T01:04:16;97037.13;;;0.72;81.17
83185;BME280;73080;48.768;11.528;2024-03-08T01:06:41;97037.03;;;0.65;82.12
83185;BME280;73080;48.768;11.528;2024-03-08T01:09:07;97040.53;;;0.72;81.51
83185;BME280;73080;48.768;11.528;2024-03-08T01:11:33;97025.00;;;0.72;81.74
83185;BME280;73080;48.768;11.528;2024-03-08T01:14:01;97021.00;;;0.70;82.10
83185;BME280;73080;48.768;11.528;2024-03-08T01:16:26;97022.25;;;0.74;82.10
83185;BME280;73080;48.768;11.528;2024-03-08T01:18:51;97020.84;;;0.71;81.99
83185;BME280;73080;48.768;11.528;2024-03-08T01:21:19;97021.00;;;0.70;82.30
83185;BME280;73080;48.768;11.528;2024-03-08T01:23:44;97014.50;;;0.74;81.82
83185;BME280;73080;48.768;11.528;2024-03-08T01:26:10;97004.59;;;0.63;82.55
83185;BME280;73080;48.768;11.528;2024-03-08T01:28:35;97002.00;;;0.63;82.35
83185;BME280;73080;48.768;11.528;2024-03-08T01:31:00;97001.22;;;0.62;82.53
83185;BME280;73080;48.768;11.528;2024-03-08T01:33:26;96998.91;;;0.67;82.82
83185;BME280;73080;48.768;11.528;2024-03-08T01:35:53;97001.13;;;0.55;82.79
83185;BME280;73080;48.768;11.528;2024-03-08T01:38:19;96990.88;;;0.62;82.58
83185;BME280;73080;48.768;11.528;2024-03-08T01:40:44;96993.75;;;0.67;82.53
83185;BME280;73080;48.768;11.528;2024-03-08T01:43:25;96994.19;;;0.71;82.54
83185;BME280;73080;48.768;11.528;2024-03-08T01:45:51;96995.97;;;0.55;82.51
83185;BME280;73080;48.768;11.528;2024-03-08T01:48:17;96996.22;;;0.61;82.70
83185;BME280;73080;48.768;11.528;2024-03-08T01:50:46;97000.06;;;0.65;82.25
83185;BME280;73080;48.768;11.528;2024-03-08T01:53:12;96986.28;;;0.58;82.50
83185;BME280;73080;48.768;11.528;2024-03-08T01:55:38;96987.88;;;0.59;82.85
83185;BME280;73080;48.768;11.528;2024-03-08T01:58:09;96988.06;;;0.57;82.51
83185;BME280;73080;48.768;11.528;2024-03-08T02:00:35;96974.22;;;0.35;82.86
83185;BME280;73080;48.768;11.528;2024-03-08T02:03:01;96973.69;;;0.54;82.15
83185;BME280;73080;48.768;11.528;2024-03-08T02:05:27;96969.50;;;0.53;82.91
83185;BME280;73080;48.768;11.528;2024-03-08T02:07:52;96971.28;;;0.53;82.47
83185;BME280;73080;48.768;11.528;2024-03-08T02:10:18;96970.84;;;0.35;83.50
83185;BME280;73080;48.768;11.528;2024-03-08T02:12:44;96971.38;;;0.30;83.79
83185;BME280;73080;48.768;11.528;2024-03-08T02:15:09;96962.75;;;0.38;83.84
83185;BME280;73080;48.768;11.528;2024-03-08T02:17:34;96959.38;;;0.37;83.61
83185;BME280;73080;48.768;11.528;2024-03-08T02:20:01;96949.13;;;0.44;83.28
83185;BME280;73080;48.768;11.528;2024-03-08T02:22:26;96947.16;;;0.31;83.08
83185;BME280;73080;48.768;11.528;2024-03-08T02:24:51;96945.38;;;0.32;83.89
83185;BME280;73080;48.768;11.528;2024-03-08T02:27:23;96932.75;;;0.37;83.15
83185;BME280;73080;48.768;11.528;2024-03-08T02:29:49;96931.78;;;0.23;83.96
83185;BME280;73080;48.768;11.528;2024-03-08T02:32:14;96934.69;;;0.20;83.78
83185;BME280;73080;48.768;11.528;2024-03-08T02:34:39;96938.63;;;0.16;84.32
83185;BME280;73080;48.768;11.528;2024-03-08T02:37:05;96930.59;;;0.25;84.42
83185;BME280;73080;48.768;11.528;2024-03-08T02:39:30;96930.78;;;0.24;84.17
83185;BME280;73080;48.768;11.528;2024-03-08T02:41:55;96931.31;;;0.34;83.73
83185;BME280;73080;48.768;11.528;2024-03-08T02:44:20;96932.56;;;0.23;84.03
83185;BME280;73080;48.768;11.528;2024-03-08T02:46:46;96930.69;;;0.32;83.76
83185;BME280;73080;48.768;11.528;2024-03-08T02:49:11;96930.88;;;0.16;83.62
83185;BME280;73080;48.768;11.528;2024-03-08T02:51:36;96927.31;;;0.17;83.88
83185;BME280;73080;48.768;11.528;2024-03-08T02:54:02;96930.97;;;0.22;84.08
83185;BME280;73080;48.768;11.528;2024-03-08T02:56:27;96922.75;;;0.19;84.20
83185;BME280;73080;48.768;11.528;2024-03-08T02:58:52;96928.28;;;0.16;84.40
83185;BME280;73080;48.768;11.528;2024-03-08T03:01:18;96927.75;;;0.20;84.07
83185;BME280;73080;48.768;11.528;2024-03-08T03:03:46;96927.31;;;0.17;83.68
83185;BME280;73080;48.768;11.528;2024-03-08T03:06:11;96934.78;;;0.26;83.77
83185;BME280;73080;48.768;11.528;2024-03-08T03:08:36;96922.84;;;0.11;84.44
83185;BME280;73080;48.768;11.528;2024-03-08T03:11:01;96922.25;;;0.09;84.50
83185;BME280;73080;48.768;11.528;2024-03-08T03:13:27;96915.31;;;0.09;84.18
83185;BME280;73080;48.768;11.528;2024-03-08T03:15:52;96917.31;;;0.14;83.94
83185;BME280;73080;48.768;11.528;2024-03-08T03:18:17;96917.00;;;0.17;84.33
83185;BME280;73080;48.768;11.528;2024-03-08T03:20:42;96919.91;;;0.14;84.29
83185;BME280;73080;48.768;11.528;2024-03-08T03:23:09;96916.72;;;0.26;83.49
83185;BME280;73080;48.768;11.528;2024-03-08T03:25:35;96922.16;;;0.17;83.66
83185;BME280;73080;48.768;11.528;2024-03-08T03:28:01;96922.16;;;0.17;84.20
83185;BME280;73080;48.768;11.528;2024-03-08T03:30:26;96916.28;;;0.23;83.64
83185;BME280;73080;48.768;11.528;2024-03-08T03:32:52;96917.06;;;0.23;83.52
83185;BME280;73080;48.768;11.528;2024-03-08T03:35:18;96920.00;;;0.20;83.70
83185;BME280;73080;48.768;11.528;2024-03-08T03:37:44;96917.59;;;0.19;83.09
83185;BME280;73080;48.768;11.528;2024-03-08T03:40:09;96905.59;;;0.26;83.17
83185;BME280;73080;48.768;11.528;2024-03-08T03:42:37;96914.94;;;0.12;83.67
83185;BME280;73080;48.768;11.528;2024-03-08T03:45:03;96902.66;;;0.14;83.38
83185;BME280;73080;48.768;11.528;2024-03-08T03:47:28;96904.59;;;0.12;83.43
83185;BME280;73080;48.768;11.528;2024-03-08T03:49:53;96907.66;;;0.16;83.68
83185;BME280;73080;48.768;11.528;2024-03-08T03:52:18;96901.78;;;0.07;83.74
83185;BME280;73080;48.768;11.528;2024-03-08T03:54:44;96895.78;;;0.07;83.96
83185;BME280;73080;48.768;11.528;2024-03-08T03:57:09;96894.66;;;0.09;83.67
83185;BME280;73080;48.768;11.528;2024-03-08T03:59:34;96898.63;;;0.12;84.17
83185;BME280;73080;48.768;11.528;2024-03-08T04:02:00;96892.50;;;0.13;84.14
83185;BME280;73080;48.768;11.528;2024-03-08T04:04:25;96891.78;;;0.04;84.03
83185;BME280;73080;48.768;11.528;2024-03-08T04:06:50;96903.00;;;-0.04;84.43
83185;BME280;73080;48.768;11.528;2024-03-08T04:09:15;96891.50;;;-0.01;84.57
83185;BME280;73080;48.768;11.528;2024-03-08T04:11:41;96890.56;;;0.00;84.03
83185;BME280;73080;48.768;11.528;2024-03-08T04:14:06;96898.47;;;-0.02;84.44
83185;BME280;73080;48.768;11.528;2024-03-08T04:16:31;96898.63;;;-0.03;84.08
83185;BME280;73080;48.768;11.528;2024-03-08T04:18:57;96892.59;;;0.05;83.97
83185;BME280;73080;48.768;11.528;2024-03-08T04:21:23;96901.69;;;0.01;84.33
83185;BME280;73080;48.768;11.528;2024-03-08T04:23:48;96904.09;;;0.02;84.87
83185;BME280;73080;48.768;11.528;2024-03-08T04:26:13;96910.47;;;0.06;84.23
83185;BME280;73080;48.768;11.528;2024-03-08T04:28:39;96906.28;;;0.05;84.74
83185;BME280;73080;48.768;11.528;2024-03-08T04:31:04;96902.72;;;0.06;84.97
83185;BME280;73080;48.768;11.528;2024-03-08T04:33:29;96906.75;;;0.09;84.31
83185;BME280;73080;48.768;11.528;2024-03-08T04:35:55;96899.53;;;0.19;83.97
83185;BME280;73080;48.768;11.528;2024-03-08T04:38:20;96904.78;;;0.11;84.36
83185;BME280;73080;48.768;11.528;2024-03-08T04:40:46;96901.03;;;0.13;84.44
83185;BME280;73080;48.768;11.528;2024-03-08T04:43:11;96898.53;;;0.20;84.08
83185;BME280;73080;48.768;11.528;2024-03-08T04:45:36;96895.25;;;0.26;84.74
83185;BME280;73080;48.768;11.528;2024-03-08T04:48:02;96898.91;;;0.32;83.86
83185;BME280;73080;48.768;11.528;2024-03-08T04:50:27;96896.75;;;0.20;84.90
83185;BME280;73080;48.768;11.528;2024-03-08T04:52:52;96895.06;;;0.27;84.77
83185;BME280;73080;48.768;11.528;2024-03-08T04:55:18;96893.28;;;0.28;84.17
83185;BME280;73080;48.768;11.528;2024-03-08T04:57:43;96884.75;;;0.13;84.37
83185;BME280;73080;48.768;11.528;2024-03-08T05:00:09;96880.84;;;0.17;84.18
83185;BME280;73080;48.768;11.528;2024-03-08T05:02:34;96890.19;;;0.18;84.21
83185;BME280;73080;48.768;11.528;2024-03-08T05:05:03;96881.47;;;0.19;84.44
83185;BME280;73080;48.768;11.528;2024-03-08T05:07:28;96884.22;;;0.32;84.57
83185;BME280;73080;48.768;11.528;2024-03-08T05:09:53;96883.06;;;0.20;84.39
83185;BME280;73080;48.768;11.528;2024-03-08T05:12:19;96884.22;;;0.32;84.43
83185;BME280;73080;48.768;11.528;2024-03-08T05:14:45;96874.50;;;0.19;84.55
83185;BME280;73080;48.768;11.528;2024-03-08T05:17:11;96874.00;;;0.24;84.58
83185;BME280;73080;48.768;11.528;2024-03-08T05:19:36;96877.81;;;0.13;85.04
83185;BME280;73080;48.768;11.528;2024-03-08T05:22:02;96867.22;;;0.23;84.39
83185;BME280;73080;48.768;11.528;2024-03-08T05:24:27;96872.22;;;0.10;84.89
83185;BME280;73080;48.768;11.528;2024-03-08T05:26:52;96866.06;;;0.11;84.65
83185;BME280;73080;48.768;11.528;2024-03-08T05:29:18;96868.28;;;-0.01;85.62
83185;BME280;73080;48.768;11.528;2024-03-08T05:34:13;96861.81;;;-0.12;85.52
83185;BME280;73080;48.768;11.528;2024-03-08T05:36:38;96856.03;;;-0.14;85.42
83185;BME280;73080;48.768;11.528;2024-03-08T05:39:03;96854.94;;;-0.05;85.28
83185;BME280;73080;48.768;11.528;2024-03-08T05:41:28;96853.59;;;-0.15;84.90
83185;BME280;73080;48.768;11.528;2024-03-08T05:43:54;96855.66;;;-0.11;85.14
83185;BME280;73080;48.768;11.528;2024-03-08T05:46:19;96857.63;;;0.02;84.23
83185;BME280;73080;48.768;11.528;2024-03-08T05:48:47;96849.59;;;-0.03;85.16
83185;BME280;73080;48.768;11.528;2024-03-08T05:51:12;96846.66;;;-0.15;85.34
83185;BME280;73080;48.768;11.528;2024-03-08T05:53:38;96851.91;;;-0.08;85.10
83185;BME280;73080;48.768;11.528;2024-03-08T05:56:03;96851.91;;;-0.08;84.38
83185;BME280;73080;48.768;11.528;2024-03-08T05:58:28;96852.28;;;-0.11;84.39
83185;BME280;73080;48.768;11.528;2024-03-08T06:00:54;96845.53;;;0.03;84.26
83185;BME280;73080;48.768;11.528;2024-03-08T06:03:19;96845.78;;;-0.07;84.75
83185;BME280;73080;48.768;11.528;2024-03-08T06:05:44;96848.81;;;-0.04;85.32
83185;BME280;73080;48.768;11.528;2024-03-08T06:08:09;96847.75;;;-0.09;85.53
83185;BME280;73080;48.768;11.528;2024-03-08T06:10:35;96845.59;;;0.09;84.76
83185;BME280;73080;48.768;11.528;2024-03-08T06:13:00;96847.22;;;-0.05;84.95
83185;BME280;73080;48.768;11.528;2024-03-08T06:15:25;96839.09;;;0.13;85.22
83185;BME280;73080;48.768;11.528;2024-03-08T06:17:51;96843.13;;;0.01;84.95
83185;BME280;73080;48.768;11.528;2024-03-08T06:20:16;96846.84;;;-0.02;85.06
83185;BME280;73080;48.768;11.528;2024-03-08T06:22:41;96838.66;;;0.10;84.78
83185;BME280;73080;48.768;11.528;2024-03-08T06:25:11;96838.44;;;0.26;84.32
83185;BME280;73080;48.768;11.528;2024-03-08T06:27:36;96835.97;;;0.18;84.38
83185;BME280;73080;48.768;11.528;2024-03-08T06:30:02;96842.47;;;0.14;85.16
83185;BME280;73080;48.768;11.528;2024-03-08T06:32:27;96836.16;;;0.16;84.79
83185;BME280;73080;48.768;11.528;2024-03-08T06:34:52;96838.22;;;0.42;83.94
83185;BME280;73080;48.768;11.528;2024-03-08T06:37:18;96842.00;;;0.40;83.80
83185;BME280;73080;48.768;11.528;2024-03-08T06:39:43;96841.97;;;0.54;83.22
83185;BME280;73080;48.768;11.528;2024-03-08T06:42:08;96841.09;;;0.47;83.29
83185;BME280;73080;48.768;11.528;2024-03-08T06:44:33;96838.34;;;0.70;82.72
83185;BME280;73080;48.768;11.528;2024-03-08T06:46:59;96845.94;;;0.72;82.38
83185;BME280;73080;48.768;11.528;2024-03-08T06:49:24;96848.19;;;0.60;83.19
83185;BME280;73080;48.768;11.528;2024-03-08T06:51:49;96844.34;;;0.71;83.03
83185;BME280;73080;48.768;11.528;2024-03-08T06:54:14;96844.94;;;0.94;81.89
83185;BME280;73080;48.768;11.528;2024-03-08T06:56:40;96843.91;;;0.89;81.65
83185;BME280;73080;48.768;11.528;2024-03-08T06:59:05;96845.84;;;0.65;82.22
83185;BME280;73080;48.768;11.528;2024-03-08T07:01:30;96843.97;;;0.74;82.27
83185;BME280;73080;48.768;11.528;2024-03-08T07:03:56;96844.16;;;0.72;82.77
83185;BME280;73080;48.768;11.528;2024-03-08T07:06:21;96840.31;;;0.90;82.52
83185;BME280;73080;48.768;11.528;2024-03-08T07:08:46;96832.56;;;0.68;82.90
83185;BME280;73080;48.768;11.528;2024-03-08T07:11:11;96831.69;;;0.61;82.88
83185;BME280;73080;48.768;11.528;2024-03-08T07:13:37;96835.72;;;0.64;82.90
83185;BME280;73080;48.768;11.528;2024-03-08T07:16:02;96831.41;;;0.71;82.43
83185;BME280;73080;48.768;11.528;2024-03-08T07:18:28;96831.28;;;1.00;82.06
83185;BME280;73080;48.768;11.528;2024-03-08T07:20:53;96833.13;;;1.06;82.07
83185;BME280;73080;48.768;11.528;2024-03-08T07:23:18;96831.50;;;1.05;81.49
83185;BME280;73080;48.768;11.528;2024-03-08T07:25:43;96838.16;;;1.36;80.84
83185;BME280;73080;48.768;11.528;2024-03-08T07:28:09;96834.91;;;1.27;80.88
83185;BME280;73080;48.768;11.528;2024-03-08T07:30:34;96841.34;;;1.38;81.18
83185;BME280;73080;48.768;11.528;2024-03-08T07:32:59;96840.03;;;1.49;80.76
83185;BME280;73080;48.768;11.528;2024-03-08T07:35:25;96837.28;;;1.85;80.21
83185;BME280;73080;48.768;11.528;2024-03-08T07:37:50;96836.06;;;1.81;79.22
83185;BME280;73080;48.768;11.528;2024-03-08T07:40:15;96830.78;;;2.02;79.01
83185;BME280;73080;48.768;11.528;2024-03-08T07:42:41;96843.94;;;1.66;78.89
83185;BME280;73080;48.768;11.528;2024-03-08T07:45:06;96833.94;;;1.56;79.70
83185;BME280;73080;48.768;11.528;2024-03-08T07:47:32;96833.38;;;1.68;79.89
83185;BME280;73080;48.768;11.528;2024-03-08T07:49:57;96826.41;;;2.03;78.45
83185;BME280;73080;48.768;11.528;2024-03-08T07:52:22;96826.91;;;2.19;78.36
83185;BME280;73080;48.768;11.528;2024-03-08T07:54:47;96834.50;;;2.28;76.77
83185;BME280;73080;48.768;11.528;2024-03-08T07:57:13;96836.06;;;2.22;77.10
83185;BME280;73080;48.768;11.528;2024-03-08T07:59:38;96834.25;;;2.16;76.74
83185;BME280;73080;48.768;11.528;2024-03-08T08:02:03;96826.88;;;2.13;76.96
83185;BME280;73080;48.768;11.528;2024-03-08T08:04:29;96829.63;;;2.05;77.29
83185;BME280;73080;48.768;11.528;2024-03-08T08:06:54;96826.16;;;2.26;76.54
83185;BME280;73080;48.768;11.528;2024-03-08T08:09:19;96826.78;;;2.34;75.90
83185;BME280;73080;48.768;11.528;2024-03-08T08:11:44;96834.59;;;2.47;75.56
83185;BME280;73080;48.768;11.528;2024-03-08T08:14:10;96824.69;;;2.71;75.61
83185;BME280;73080;48.768;11.528;2024-03-08T08:16:36;96827.66;;;2.74;73.92
83185;BME280;73080;48.768;11.528;2024-03-08T08:19:01;96814.88;;;2.60;74.30
83185;BME280;73080;48.768;11.528;2024-03-08T08:21:27;96813.72;;;2.75;75.41
83185;BME280;73080;48.768;11.528;2024-03-08T08:23:52;96818.28;;;2.73;74.25
83185;BME280;73080;48.768;11.528;2024-03-08T08:26:17;96811.47;;;2.59;75.01
83185;BME280;73080;48.768;11.528;2024-03-08T08:28:42;96807.13;;;2.80;73.87
83185;BME280;73080;48.768;11.528;2024-03-08T08:31:08;96805.38;;;3.00;72.73
83185;BME280;73080;48.768;11.528;2024-03-08T08:33:33;96805.97;;;2.95;73.01
83185;BME280;73080;48.768;11.528;2024-03-08T08:35:58;96803.19;;;2.97;73.16
83185;BME280;73080;48.768;11.528;2024-03-08T08:38:24;96790.22;;;3.03;72.24
83185;BME280;73080;48.768;11.528;2024-03-08T08:40:49;96799.78;;;3.03;73.14
83185;BME280;73080;48.768;11.528;2024-03-08T08:43:14;96794.59;;;3.10;71.98
83185;BME280;73080;48.768;11.528;2024-03-08T08:45:39;96786.44;;;3.19;72.02
83185;BME280;73080;48.768;11.528;2024-03-08T08:48:06;96794.22;;;3.26;71.78
83185;BME280;73080;48.768;11.528;2024-03-08T08:50:31;96790.59;;;3.47;71.10
83185;BME280;73080;48.768;11.528;2024-03-08T08:52:56;96795.69;;;3.93;69.51
83185;BME280;73080;48.768;11.528;2024-03-08T08:55:22;96788.69;;;3.94;68.98
83185;BME280;73080;48.768;11.528;2024-03-08T08:57:47;96775.38;;;3.70;69.25
83185;BME280;73080;48.768;11.528;2024-03-08T09:00:13;96774.63;;;3.50;70.42
83185;BME280;73080;48.768;11.528;2024-03-08T09:02:38;96769.41;;;3.70;70.24
83185;BME280;73080;48.768;11.528;2024-03-08T09:05:04;96763.22;;;3.57;70.65
83185;BME280;73080;48.768;11.528;2024-03-08T09:07:29;96762.66;;;4.13;69.60
83185;BME280;73080;48.768;11.528;2024-03-08T09:09:54;96765.41;;;4.25;68.15
83185;BME280;73080;48.768;11.528;2024-03-08T09:12:20;96757.06;;;4.17;68.63
83185;BME280;73080;48.768;11.528;2024-03-08T09:14:45;96764.00;;;3.71;69.08
83185;BME280;73080;48.768;11.528;2024-03-08T09:17:10;96759.41;;;4.25;67.74
83185;BME280;73080;48.768;11.528;2024-03-08T09:19:36;96759.81;;;4.22;67.30
83185;BME280;73080;48.768;11.528;2024-03-08T09:22:01;96756.09;;;4.43;66.42
83185;BME280;73080;48.768;11.528;2024-03-08T09:24:26;96755.78;;;4.32;67.10
83185;BME280;73080;48.768;11.528;2024-03-08T09:26:51;96749.06;;;4.50;66.67
83185;BME280;73080;48.768;11.528;2024-03-08T09:29:17;96751.56;;;4.38;67.26
83185;BME280;73080;48.768;11.528;2024-03-08T09:31:42;96746.19;;;4.33;68.37
83185;BME280;73080;48.768;11.528;2024-03-08T09:34:07;96745.63;;;4.24;67.90
83185;BME280;73080;48.768;11.528;2024-03-08T09:36:32;96748.50;;;4.48;66.19
83185;BME280;73080;48.768;11.528;2024-03-08T09:38:58;96744.25;;;5.10;66.57
83185;BME280;73080;48.768;11.528;2024-03-08T09:41:23;96737.94;;;4.74;66.49
83185;BME280;73080;48.768;11.528;2024-03-08T09:43:48;96745.50;;;4.76;66.44
83185;BME280;73080;48.768;11.528;2024-03-08T09:46:14;96739.91;;;5.04;64.25
83185;BME280;73080;48.768;11.528;2024-03-08T09:48:40;96740.53;;;5.24;62.46
83185;BME280;73080;48.768;11.528;2024-03-08T09:51:06;96726.53;;;5.43;64.83
83185;BME280;73080;48.768;11.528;2024-03-08T09:53:31;96731.34;;;4.96;64.74
83185;BME280;73080;48.768;11.528;2024-03-08T09:55:56;96725.94;;;5.41;63.47
83185;BME280;73080;48.768;11.528;2024-03-08T09:58:22;96721.63;;;5.54;63.31
83185;BME280;73080;48.768;11.528;2024-03-08T10:00:47;96726.22;;;5.33;64.38
83185;BME280;73080;48.768;11.528;2024-03-08T10:03:13;96722.06;;;5.50;62.53
83185;BME280;73080;48.768;11.528;2024-03-08T10:05:38;96705.13;;;5.60;62.52
83185;BME280;73080;48.768;11.528;2024-03-08T10:08:04;96717.78;;;5.38;62.41
83185;BME280;73080;48.768;11.528;2024-03-08T10:10:30;96716.13;;;5.80;61.59
83185;BME280;73080;48.768;11.528;2024-03-08T10:12:55;96718.50;;;5.82;60.45
83185;BME280;73080;48.768;11.528;2024-03-08T10:15:21;96710.47;;;5.83;59.72
83185;BME280;73080;48.768;11.528;2024-03-08T10:17:46;96707.16;;;5.58;60.56
83185;BME280;73080;48.768;11.528;2024-03-08T10:20:18;96701.41;;;6.22;59.44
83185;BME280;73080;48.768;11.528;2024-03-08T10:22:44;96688.97;;;6.06;57.60
83185;BME280;73080;48.768;11.528;2024-03-08T10:25:12;96696.06;;;6.17;59.44
83185;BME280;73080;48.768;11.528;2024-03-08T10:27:38;96692.81;;;6.33;58.41
83185;BME280;73080;48.768;11.528;2024-03-08T10:30:06;96692.94;;;5.90;58.41
83185;BME280;73080;48.768;11.528;2024-03-08T10:32:32;96685.91;;;6.39;57.64
83185;BME280;73080;48.768;11.528;2024-03-08T10:34:57;96687.63;;;6.99;56.29
83185;BME280;73080;48.768;11.528;2024-03-08T10:37:23;96681.78;;;6.61;56.61
83185;BME280;73080;48.768;11.528;2024-03-08T10:42:28;96676.13;;;6.23;56.97
83185;BME280;73080;48.768;11.528;2024-03-08T10:45:05;96681.22;;;6.59;56.78
83185;BME280;73080;48.768;11.528;2024-03-08T10:47:34;96669.00;;;6.72;56.16
83185;BME280;73080;48.768;11.528;2024-03-08T10:50:18;96672.63;;;6.94;55.39
83185;BME280;73080;48.768;11.528;2024-03-08T10:52:43;96674.66;;;6.80;56.36
83185;BME280;73080;48.768;11.528;2024-03-08T10:55:10;96666.63;;;7.40;56.23
83185;BME280;73080;48.768;11.528;2024-03-08T10:57:36;96673.44;;;7.30;56.71
83185;BME280;73080;48.768;11.528;2024-03-08T11:00:03;96669.78;;;7.31;55.22
83185;BME280;73080;48.768;11.528;2024-03-08T11:02:30;96657.75;;;7.30;54.89
83185;BME280;73080;48.768;11.528;2024-03-08T11:04:55;96666.63;;;7.40;53.89
83185;BME280;73080;48.768;11.528;2024-03-08T11:07:21;96659.38;;;7.19;54.87
83185;BME280;73080;48.768;11.528;2024-03-08T11:09:49;96652.16;;;7.50;54.09
83185;BME280;73080;48.768;11.528;2024-03-08T11:14:47;96646.72;;;7.51;53.24
83185;BME280;73080;48.768;11.528;2024-03-08T11:17:13;96637.84;;;7.92;52.69
83185;BME280;73080;48.768;11.528;2024-03-08T11:19:46;96635.75;;;7.78;53.29
83185;BME280;73080;48.768;11.528;2024-03-08T11:22:23;96641.34;;;7.69;52.93
83185;BME280;73080;48.768;11.528;2024-03-08T11:24:53;96630.13;;;7.86;52.28
83185;BME280;73080;48.768;11.528;2024-03-08T11:27:18;96628.66;;;7.61;52.06
83185;BME280;73080;48.768;11.528;2024-03-08T11:29:43;96627.16;;;7.94;51.65
83185;BME280;73080;48.768;11.528;2024-03-08T11:32:15;96611.75;;;7.81;51.44
83185;BME280;73080;48.768;11.528;2024-03-08T11:34:43;96612.19;;;7.89;50.76
83185;BME280;73080;48.768;11.528;2024-03-08T11:37:13;96600.81;;;8.12;50.18
83185;BME280;73080;48.768;11.528;2024-03-08T11:39:40;96599.09;;;8.35;51.33
83185;BME280;73080;48.768;11.528;2024-03-08T11:42:05;96599.41;;;8.21;51.18
83185;BME280;73080;48.768;11.528;2024-03-08T11:44:31;96599.91;;;8.86;49.82
83185;BME280;73080;48.768;11.528;2024-03-08T11:46:56;96599.38;;;8.50;49.08
83185;BME280;73080;48.768;11.528;2024-03-08T11:49:21;96595.16;;;8.66;49.10
83185;BME280;73080;48.768;11.528;2024-03-08T11:51:47;96594.03;;;8.78;49.03
83185;BME280;73080;48.768;11.528;2024-03-08T11:54:19;96584.09;;;8.97;49.05
83185;BME280;73080;48.768;11.528;2024-03-08T11:56:44;96581.78;;;9.01;49.45
83185;BME280;73080;48.768;11.528;2024-03-08T11:59:13;96592.41;;;8.56;49.28
83185;BME280;73080;48.768;11.528;2024-03-08T12:01:39;96580.78;;;8.85;48.81
83185;BME280;73080;48.768;11.528;2024-03-08T12:04:04;96588.09;;;8.66;47.32
83185;BME280;73080;48.768;11.528;2024-03-08T12:06:38;96576.78;;;8.61;47.59
83185;BME280;73080;48.768;11.528;2024-03-08T12:09:03;96564.41;;;8.56;48.78
83185;BME280;73080;48.768;11.528;2024-03-08T12:11:28;96564.03;;;8.86;49.89
83185;BME280;73080;48.768;11.528;2024-03-08T12:13:54;96559.72;;;8.41;48.83
83185;BME280;73080;48.768;11.528;2024-03-08T12:16:20;96556.81;;;8.55;49.63
83185;BME280;73080;48.768;11.528;2024-03-08T12:18:45;96562.53;;;8.73;48.90
83185;BME280;73080;48.768;11.528;2024-03-08T12:21:11;96549.47;;;8.73;47.96
83185;BME280;73080;48.768;11.528;2024-03-08T12:23:38;96548.81;;;8.83;49.44
83185;BME280;73080;48.768;11.528;2024-03-08T12:26:14;96559.06;;;9.06;47.31
83185;BME280;73080;48.768;11.528;2024-03-08T12:28:43;96540.16;;;8.61;47.90
83185;BME280;73080;48.768;11.528;2024-03-08T12:31:08;96548.31;;;8.47;48.31
83185;BME280;73080;48.768;11.528;2024-03-08T12:33:34;96544.69;;;9.09;47.56
83185;BME280;73080;48.768;11.528;2024-03-08T12:35:59;96546.47;;;9.03;47.17
83185;BME280;73080;48.768;11.528;2024-03-08T12:38:27;96545.44;;;9.04;45.27
83185;BME280;73080;48.768;11.528;2024-03-08T12:40:58;96544.50;;;8.94;45.39
83185;BME280;73080;48.768;11.528;2024-03-08T12:43:23;96540.66;;;8.79;46.38
83185;BME280;73080;48.768;11.528;2024-03-08T12:45:49;96535.66;;;8.78;47.32
83185;BME280;73080;48.768;11.528;2024-03-08T12:48:14;96533.50;;;8.53;46.94
83185;BME280;73080;48.768;11.528;2024-03-08T12:50:39;96530.16;;;8.96;46.54
83185;BME280;73080;48.768;11.528;2024-03-08T12:53:04;96532.78;;;9.18;46.75
83185;BME280;73080;48.768;11.528;2024-03-08T12:55:30;96528.00;;;9.15;46.35
83185;BME280;73080;48.768;11.528;2024-03-08T12:57:55;96519.00;;;9.06;45.24
83185;BME280;73080;48.768;11.528;2024-03-08T13:00:20;96512.47;;;9.08;44.07